Time;durP1;ratioP1;P1;durP2;ratioP2;P2;SDS_P1;SDS_P2;PMS_P1;PMS_P2;Temp;Humidity;BMP_temperature;BMP_pressure;BME280_temperature;BME280_humidity;BME280_pressure;Samples;Min_cycle;Max_cycle;Signal;HPM_P1;HPM_P2
2022/09/16 00:01:00;;;;;;;;;;;;;;;15.36;97.77;99184.44;10542131;28;19981;-75
2022/09/16 00:06:20;;;;;;;;;;;;;;;15.36;98.26;99190.50;10543253;28;19930;-78
2022/09/16 00:11:23;;;;;;;;;;;;;;;15.24;99.59;99188.47;10541547;28;19928;-77
2022/09/16 00:16:28;;;;;;;;;;;;;;;15.44;99.12;99182.34;10582804;28;19969;-76
2022/09/16 00:21:31;;;;;;;;;;;;;;;15.55;97.82;99173.03;10583944;28;20007;-79
2022/09/16 00:26:34;;;;;;;;;;;;;;;15.44;97.75;99171.88;10583095;28;20043;-75
2022/09/16 00:31:39;;;;;;;;;;;;;;;15.30;98.51;99176.88;10583643;28;20486;-76
2022/09/16 00:36:42;;;;;;;;;;;;;;;15.18;99.55;99191.41;10584361;28;19928;-75
2022/09/16 00:41:45;;;;;;;;;;;;;;;15.27;99.85;99196.19;10585147;28;19930;-76
2022/09/16 00:46:49;;;;;;;;;;;;;;;15.39;99.03;99195.59;10584627;28;19968;-77
2022/09/16 00:51:54;;;;;;;;;;;;;;;15.28;98.74;99191.78;10583222;28;20519;-78
2022/09/16 00:56:59;;;;;;;;;;;;;;;15.23;99.54;99184.19;10581279;28;20229;-77
2022/09/16 01:02:06;;;;;;;;;;;;;;;15.33;98.86;99180.19;10581707;28;19938;-80
2022/09/16 01:07:09;;;;;;;;;;;;;;;15.25;98.28;99184.97;10581404;28;20360;-77
2022/09/16 01:12:12;;;;;;;;;;;;;;;15.30;97.82;99184.72;10576055;28;20020;-79
2022/09/16 01:17:22;;;;;;;;;;;;;;;15.41;97.17;99191.16;10539863;28;19928;-78
2022/09/16 01:22:34;;;;;;;;;;;;;;;15.32;97.45;99182.91;10538726;28;19938;-78
2022/09/16 01:27:52;;;;;;;;;;;;;;;15.34;97.32;99181.06;10538361;28;19928;-70
2022/09/16 01:33:03;;;;;;;;;;;;;;;15.19;97.38;99189.59;10538329;28;20019;-71
2022/09/16 01:38:12;;;;;;;;;;;;;;;15.21;96.88;99188.63;10540283;28;19980;-74
2022/09/16 01:43:18;;;;;;;;;;;;;;;15.14;96.91;99199.44;10542611;28;19931;-72
2022/09/16 01:48:26;;;;;;;;;;;;;;;15.05;96.52;99201.56;10543712;28;19942;-73
2022/09/16 01:53:32;;;;;;;;;;;;;;;15.06;96.13;99200.63;10544816;28;19924;-72
2022/09/16 01:58:37;;;;;;;;;;;;;;;15.07;95.64;99199.75;10543238;28;20296;-74
2022/09/16 02:03:43;;;;;;;;;;;;;;;14.95;96.35;99200.31;10543265;28;19924;-73
2022/09/16 02:08:49;;;;;;;;;;;;;;;15.02;95.60;99209.56;10543416;28;20026;-71
2022/09/16 02:13:55;;;;;;;;;;;;;;;15.04;95.78;99206.88;10543118;28;19980;-74
2022/09/16 02:19:01;;;;;;;;;;;;;;;14.94;96.06;99203.81;10542801;28;20309;-75
2022/09/16 02:24:08;;;;;;;;;;;;;;;14.94;96.83;99209.03;10543480;28;19925;-70
2022/09/16 02:29:14;;;;;;;;;;;;;;;14.91;96.97;99218.78;10542539;28;19925;-73
2022/09/16 02:34:20;;;;;;;;;;;;;;;14.86;96.62;99205.09;10543223;28;19964;-71
2022/09/16 02:39:27;;;;;;;;;;;;;;;14.78;97.60;99217.66;10542483;28;19934;-73
2022/09/16 02:44:30;;;;;;;;;;;;;;;14.77;97.67;99206.38;10542296;28;19930;-71
2022/09/16 02:49:39;;;;;;;;;;;;;;;14.93;97.11;99212.59;10542327;28;19959;-69
2022/09/16 02:54:48;;;;;;;;;;;;;;;14.90;97.00;99211.88;10542119;28;19981;-71
2022/09/16 02:59:51;;;;;;;;;;;;;;;14.89;97.36;99207.59;10542308;28;20028;-68
2022/09/16 03:04:56;;;;;;;;;;;;;;;14.80;98.02;99210.63;10541934;28;19924;-70
2022/09/16 03:09:58;;;;;;;;;;;;;;;14.94;97.56;99210.84;10541853;28;19928;-69
2022/09/16 03:15:23;;;;;;;;;;;;;;;14.80;98.34;99208.00;10541635;28;19974;-70
2022/09/16 03:20:34;;;;;;;;;;;;;;;14.87;98.00;99212.03;10542883;28;19928;-69
2022/09/16 03:25:43;;;;;;;;;;;;;;;14.85;98.38;99221.69;10549225;28;19923;-70
2022/09/16 03:30:49;;;;;;;;;;;;;;;14.90;98.14;99211.88;10549046;28;19932;-75
2022/09/16 03:35:56;;;;;;;;;;;;;;;14.81;98.58;99218.38;10549153;28;19981;-70
2022/09/16 03:40:59;;;;;;;;;;;;;;;14.78;98.61;99222.88;10549130;28;20363;-70
2022/09/16 03:46:02;;;;;;;;;;;;;;;14.61;99.10;99223.66;10548258;28;19924;-73
2022/09/16 03:51:06;;;;;;;;;;;;;;;14.56;99.89;99230.00;10548173;28;19942;-68
2022/09/16 03:56:09;;;;;;;;;;;;;;;14.56;99.69;99237.84;10547865;28;20003;-67
2022/09/16 04:01:13;;;;;;;;;;;;;;;14.53;100.00;99238.81;10548157;28;19924;-73
2022/09/16 04:06:17;;;;;;;;;;;;;;;14.48;100.00;99234.72;10547590;28;20002;-70
2022/09/16 04:11:21;;;;;;;;;;;;;;;14.50;99.77;99248.53;10548022;28;20019;-69
2022/09/16 04:16:24;;;;;;;;;;;;;;;14.61;99.75;99244.56;10546901;28;19924;-74
2022/09/16 04:21:29;;;;;;;;;;;;;;;14.49;99.36;99239.00;10546831;28;19985;-73
2022/09/16 04:26:32;;;;;;;;;;;;;;;14.48;99.59;99242.56;10546799;28;19924;-75
2022/09/16 04:31:35;;;;;;;;;;;;;;;14.50;99.92;99238.94;10546471;28;20359;-71
2022/09/16 04:36:39;;;;;;;;;;;;;;;14.39;99.93;99245.56;10547395;28;20404;-71
2022/09/16 04:41:42;;;;;;;;;;;;;;;14.29;100.00;99250.31;10546071;28;19924;-70
2022/09/16 04:46:45;;;;;;;;;;;;;;;14.22;100.00;99248.00;10546381;28;20006;-70
2022/09/16 04:51:51;;;;;;;;;;;;;;;14.30;100.00;99254.63;10545735;28;19924;-71
2022/09/16 04:56:54;;;;;;;;;;;;;;;14.34;100.00;99252.75;10545929;28;20363;-71
2022/09/16 05:01:56;;;;;;;;;;;;;;;14.35;100.00;99257.03;10545653;28;19976;-72
2022/09/16 05:07:01;;;;;;;;;;;;;;;14.22;100.00;99263.66;10544966;28;19924;-73
2022/09/16 05:12:05;;;;;;;;;;;;;;;14.24;100.00;99256.59;10544764;28;19924;-74
2022/09/16 05:17:08;;;;;;;;;;;;;;;14.34;100.00;99257.97;10545103;28;19927;-77
2022/09/16 05:22:13;;;;;;;;;;;;;;;14.28;100.00;99253.84;10545552;28;20007;-73
2022/09/16 05:27:16;;;;;;;;;;;;;;;14.23;100.00;99255.78;10544375;28;19924;-71
2022/09/16 05:32:19;;;;;;;;;;;;;;;14.11;100.00;99269.34;10544020;28;19934;-74
2022/09/16 05:37:23;;;;;;;;;;;;;;;14.12;100.00;99278.84;10543738;28;20428;-73
2022/09/16 05:42:26;;;;;;;;;;;;;;;14.00;100.00;99279.34;10543376;28;19924;-71
2022/09/16 05:47:29;;;;;;;;;;;;;;;14.06;100.00;99275.66;10543194;28;19924;-70
2022/09/16 05:52:33;;;;;;;;;;;;;;;13.94;100.00;99282.22;10543458;28;19924;-75
2022/09/16 05:57:36;;;;;;;;;;;;;;;13.96;100.00;99271.72;10543224;28;19924;-73
2022/09/16 06:02:39;;;;;;;;;;;;;;;14.18;100.00;99277.75;9842714;28;10000888;-76
2022/09/16 06:07:44;;;;;;;;;;;;;;;14.20;99.84;99279.41;10531822;28;19955;-74
2022/09/16 06:12:47;;;;;;;;;;;;;;;14.10;100.00;99269.41;10537358;28;19935;-75
2022/09/16 06:17:50;;;;;;;;;;;;;;;14.18;99.35;99256.88;10535937;28;20024;-74
2022/09/16 06:22:54;;;;;;;;;;;;;;;14.17;98.65;99263.00;10537199;28;19928;-75
2022/09/16 06:27:57;;;;;;;;;;;;;;;14.08;98.70;99274.66;10532715;28;19978;-72
2022/09/16 06:33:00;;;;;;;;;;;;;;;14.10;99.61;99279.84;10496776;28;20257;-75
2022/09/16 06:38:04;;;;;;;;;;;;;;;14.31;98.25;99274.59;10496778;28;19939;-74
2022/09/16 06:43:07;;;;;;;;;;;;;;;14.34;97.68;99273.63;10510546;28;20371;-76
2022/09/16 06:48:11;;;;;;;;;;;;;;;14.42;96.83;99267.16;10533114;28;20349;-78
2022/09/16 06:53:15;;;;;;;;;;;;;;;14.50;97.25;99253.75;10495011;28;20249;-75
2022/09/16 06:58:18;;;;;;;;;;;;;;;14.58;97.55;99259.50;10501671;28;20022;-74
2022/09/16 07:03:22;;;;;;;;;;;;;;;14.59;97.06;99271.63;10524086;28;20015;-77
2022/09/16 07:08:27;;;;;;;;;;;;;;;14.61;95.25;99264.59;10581238;28;20313;-75
2022/09/16 07:13:30;;;;;;;;;;;;;;;14.72;94.67;99275.41;10501380;28;19950;-75
2022/09/16 07:18:33;;;;;;;;;;;;;;;14.63;93.71;99266.19;10501404;28;19928;-75
2022/09/16 07:23:39;;;;;;;;;;;;;;;14.78;93.08;99264.69;10501653;28;20365;-73
2022/09/16 07:28:43;;;;;;;;;;;;;;;14.68;90.40;99289.53;10502438;28;19928;-73
2022/09/16 07:33:48;;;;;;;;;;;;;;;14.67;89.85;99275.59;10500691;28;19954;-69
2022/09/16 07:38:52;;;;;;;;;;;;;;;14.82;88.34;99271.47;10502442;28;19960;-70
2022/09/16 07:43:57;;;;;;;;;;;;;;;14.95;87.81;99283.06;10543241;28;19924;-70
2022/09/16 07:49:01;;;;;;;;;;;;;;;15.02;85.72;99285.34;10541498;28;19928;-72
2022/09/16 07:54:07;;;;;;;;;;;;;;;14.91;80.50;99290.19;10500932;28;20011;-72
2022/09/16 07:59:11;;;;;;;;;;;;;;;14.84;79.40;99282.72;10504083;28;20046;-71
2022/09/16 08:04:20;;;;;;;;;;;;;;;14.94;78.80;99289.22;10561653;28;20032;-69
2022/09/16 08:09:26;;;;;;;;;;;;;;;14.91;76.98;99292.81;10580371;28;19924;-70
2022/09/16 08:14:49;;;;;;;;;;;;;;;14.96;76.09;99300.47;10540968;28;19932;-71
2022/09/16 08:19:52;;;;;;;;;;;;;;;15.03;75.76;99294.00;10539968;28;19932;-70
2022/09/16 08:24:57;;;;;;;;;;;;;;;15.15;74.67;99296.09;10540849;28;19924;-71
2022/09/16 08:30:00;;;;;;;;;;;;;;;15.10;72.16;99292.00;10536177;28;19926;-72
2022/09/16 08:35:03;;;;;;;;;;;;;;;15.24;72.34;99289.59;10499022;28;19932;-70
2022/09/16 08:40:14;;;;;;;;;;;;;;;15.46;71.21;99279.88;10503143;28;19950;-70
2022/09/16 08:45:20;;;;;;;;;;;;;;;15.55;71.98;99287.28;10539880;28;19954;-70
2022/09/16 08:50:25;;;;;;;;;;;;;;;15.80;69.98;99278.19;10539804;28;20038;-70
2022/09/16 08:55:32;;;;;;;;;;;;;;;15.88;69.45;99278.66;10539294;28;19938;-70
2022/09/16 09:00:37;;;;;;;;;;;;;;;16.11;68.35;99286.22;10538581;28;19936;-72
2022/09/16 09:05:43;;;;;;;;;;;;;;;16.18;65.88;99284.16;10568399;28;19923;-70
2022/09/16 09:10:49;;;;;;;;;;;;;;;16.41;65.01;99280.38;10567787;28;19925;-70
2022/09/16 09:15:57;;;;;;;;;;;;;;;16.49;64.89;99286.09;10496777;28;19928;-68
2022/09/16 09:21:09;;;;;;;;;;;;;;;16.58;63.16;99273.38;10497083;28;19985;-70
2022/09/16 09:26:19;;;;;;;;;;;;;;;16.72;61.60;99280.53;10499037;28;19928;-69
2022/09/16 09:31:27;;;;;;;;;;;;;;;16.59;62.07;99288.16;10505776;28;19934;-70
2022/09/16 09:36:42;;;;;;;;;;;;;;;16.57;62.54;99295.25;10537924;28;19928;-70
2022/09/16 09:41:48;;;;;;;;;;;;;;;16.69;62.14;99289.38;10536277;28;19930;-70
2022/09/16 09:46:54;;;;;;;;;;;;;;;17.16;62.06;99289.50;10537562;28;20256;-70
2022/09/16 09:52:00;;;;;;;;;;;;;;;17.72;60.26;99283.78;10527948;28;20070;-70
2022/09/16 09:57:06;;;;;;;;;;;;;;;18.38;59.30;99288.63;10496479;28;19928;-67
2022/09/16 10:02:14;;;;;;;;;;;;;;;18.53;59.15;99276.41;10506552;28;19928;-67
2022/09/16 10:07:18;;;;;;;;;;;;;;;18.85;57.30;99277.09;10579729;28;20596;-67
2022/09/16 10:12:29;;;;;;;;;;;;;;;18.75;58.28;99268.91;10554178;28;19932;-69
2022/09/16 10:17:32;;;;;;;;;;;;;;;18.06;58.53;99280.94;10495759;28;19931;-65
2022/09/16 10:22:35;;;;;;;;;;;;;;;17.73;59.82;99275.81;10507089;28;19927;-67
2022/09/16 10:27:40;;;;;;;;;;;;;;;18.05;58.82;99287.13;10536897;28;19934;-68
2022/09/16 10:32:49;;;;;;;;;;;;;;;18.46;58.44;99271.59;10530479;28;19950;-66
2022/09/16 10:37:54;;;;;;;;;;;;;;;18.25;58.70;99294.69;10503125;28;19967;-69
2022/09/16 10:43:01;;;;;;;;;;;;;;;18.74;57.31;99271.66;10503166;28;20375;-68
2022/09/16 10:48:06;;;;;;;;;;;;;;;18.74;57.09;99274.28;10504632;28;19964;-66
2022/09/16 10:53:21;;;;;;;;;;;;;;;18.71;56.25;99269.19;10517422;28;20349;-70
2022/09/16 10:58:26;;;;;;;;;;;;;;;19.13;55.54;99274.47;10545038;28;20386;-67
2022/09/16 11:03:41;;;;;;;;;;;;;;;19.59;53.82;99268.00;10551696;28;19927;-67
2022/09/16 11:08:50;;;;;;;;;;;;;;;20.21;51.50;99266.56;10585937;28;19931;-69
2022/09/16 11:13:59;;;;;;;;;;;;;;;19.67;52.25;99278.91;10567825;28;19928;-69
2022/09/16 11:19:05;;;;;;;;;;;;;;;20.45;50.62;99273.69;10544954;28;19967;-77
2022/09/16 11:24:17;;;;;;;;;;;;;;;21.38;48.55;99257.50;10543075;28;19971;-74
2022/09/16 11:29:29;;;;;;;;;;;;;;;22.11;46.97;99245.06;10543020;28;19946;-76
2022/09/16 11:34:43;;;;;;;;;;;;;;;22.05;45.73;99242.88;10542294;28;19928;-76
2022/09/16 11:39:55;;;;;;;;;;;;;;;21.19;47.41;99226.28;10543402;28;20026;-74
2022/09/16 11:45:04;;;;;;;;;;;;;;;20.28;49.21;99231.81;10541315;28;19946;-76
2022/09/16 11:50:16;;;;;;;;;;;;;;;20.21;49.74;99241.06;10542820;28;19991;-74
2022/09/16 11:55:26;;;;;;;;;;;;;;;19.68;48.55;99243.72;10517901;28;19928;-74
2022/09/16 12:00:32;;;;;;;;;;;;;;;19.94;48.23;99242.88;10500008;28;20257;-75
2022/09/16 12:05:38;;;;;;;;;;;;;;;19.58;47.91;99250.53;10500811;28;20011;-75
2022/09/16 12:10:46;;;;;;;;;;;;;;;19.19;48.64;99259.13;10503461;28;19971;-77
2022/09/16 12:15:52;;;;;;;;;;;;;;;20.79;45.85;99251.13;10505314;28;19925;-78
2022/09/16 12:21:01;;;;;;;;;;;;;;;22.31;43.18;99245.25;10505127;28;19986;-79
2022/09/16 12:26:05;;;;;;;;;;;;;;;23.40;42.19;99232.25;10531004;28;20019;-76
2022/09/16 12:31:12;;;;;;;;;;;;;;;22.24;43.41;99241.41;10546391;28;20467;-76
2022/09/16 12:36:19;;;;;;;;;;;;;;;21.79;44.17;99247.47;10544871;28;19924;-76
2022/09/16 12:41:44;;;;;;;;;;;;;;;23.86;42.21;99261.16;10547036;28;20272;-77
2022/09/16 12:47:06;;;;;;;;;;;;;;;22.73;42.60;99243.78;10545227;28;20344;-78
2022/09/16 12:52:22;;;;;;;;;;;;;;;23.63;40.68;99219.78;10545749;28;19963;-76
2022/09/16 12:57:35;;;;;;;;;;;;;;;23.84;41.01;99196.84;10512315;28;19978;-76
2022/09/16 13:02:42;;;;;;;;;;;;;;;23.87;40.32;99196.56;10503524;28;19925;-77
2022/09/16 13:07:49;;;;;;;;;;;;;;;21.82;43.66;99220.81;10504138;28;19928;-76
2022/09/16 13:12:57;;;;;;;;;;;;;;;20.80;45.28;99222.94;10502852;28;20413;-75
2022/09/16 13:18:22;;;;;;;;;;;;;;;21.89;43.73;99223.81;10538176;28;19928;-76
2022/09/16 13:23:31;;;;;;;;;;;;;;;20.94;45.73;99220.19;10544694;28;20014;-79
2022/09/16 13:28:37;;;;;;;;;;;;;;;21.32;44.83;99213.91;10504982;28;20440;-78
2022/09/16 13:33:43;;;;;;;;;;;;;;;21.97;43.64;99198.50;10502876;28;20011;-78
2022/09/16 13:38:49;;;;;;;;;;;;;;;21.66;44.66;99214.91;10485598;28;19960;-68
2022/09/16 13:43:53;;;;;;;;;;;;;;;21.81;44.25;99213.00;10502346;28;20020;-75
2022/09/16 13:49:03;;;;;;;;;;;;;;;21.42;45.16;99204.38;10502337;28;19924;-73
2022/09/16 13:54:18;;;;;;;;;;;;;;;20.52;45.95;99209.03;10502106;28;19981;-72
2022/09/16 13:59:28;;;;;;;;;;;;;;;20.16;45.99;99211.53;10542520;28;19924;-74
2022/09/16 14:04:41;;;;;;;;;;;;;;;20.29;46.03;99214.19;10542446;28;19924;-72
2022/09/16 14:09:46;;;;;;;;;;;;;;;20.42;45.58;99212.41;10168674;28;10000409;-72
2022/09/16 14:14:57;;;;;;;;;;;;;;;20.35;46.67;99204.09;10573699;28;19932;-69
2022/09/16 14:20:04;;;;;;;;;;;;;;;20.35;46.77;99201.44;10495142;28;20224;-67
2022/09/16 14:25:22;;;;;;;;;;;;;;;20.19;47.17;99199.97;10497381;28;19928;-69
2022/09/16 14:30:31;;;;;;;;;;;;;;;20.15;47.23;99191.38;10537443;28;19971;-68
2022/09/16 14:35:36;;;;;;;;;;;;;;;19.71;47.75;99208.47;10531009;28;20031;-69
2022/09/16 14:40:40;;;;;;;;;;;;;;;19.20;48.33;99200.31;10495626;28;19950;-67
2022/09/16 14:45:45;;;;;;;;;;;;;;;18.98;48.61;99202.59;10500771;28;19942;-69
2022/09/16 14:50:50;;;;;;;;;;;;;;;18.69;49.20;99192.22;10536263;28;20344;-70
2022/09/16 14:55:53;;;;;;;;;;;;;;;18.64;49.75;99189.84;10527883;28;20427;-67
2022/09/16 15:01:03;;;;;;;;;;;;;;;18.67;50.24;99186.22;10517389;28;20122;-64
2022/09/16 15:06:16;;;;;;;;;;;;;;;18.49;50.51;99187.31;10500853;28;20253;-68
2022/09/16 15:11:22;;;;;;;;;;;;;;;18.25;51.38;99190.47;10547113;28;19928;-68
2022/09/16 15:16:47;;;;;;;;;;;;;;;18.25;51.47;99200.97;10536559;28;19924;-67
2022/09/16 15:21:52;;;;;;;;;;;;;;;18.15;51.67;99202.44;10542687;28;19934;-68
2022/09/16 15:26:56;;;;;;;;;;;;;;;18.12;51.72;99200.00;10542260;28;19996;-68
2022/09/16 15:32:06;;;;;;;;;;;;;;;18.07;51.87;99188.94;10541535;28;19959;-67
2022/09/16 15:37:24;;;;;;;;;;;;;;;18.08;52.26;99195.03;10541991;28;20341;-69
2022/09/16 15:42:29;;;;;;;;;;;;;;;17.89;53.09;99195.28;10522144;28;19924;-71
2022/09/16 15:47:33;;;;;;;;;;;;;;;17.99;53.22;99185.06;10518406;28;19935;-72
2022/09/16 15:52:51;;;;;;;;;;;;;;;17.77;53.85;99180.25;10500401;28;19990;-72
2022/09/16 15:57:59;;;;;;;;;;;;;;;17.63;53.44;99192.44;10524151;28;19993;-70
2022/09/16 16:03:03;;;;;;;;;;;;;;;17.65;53.65;99194.06;10539392;28;20433;-71
2022/09/16 16:08:07;;;;;;;;;;;;;;;17.62;53.76;99190.78;10540628;28;20047;-69
2022/09/16 16:13:13;;;;;;;;;;;;;;;17.54;53.32;99185.94;10579790;28;19950;-68
2022/09/16 16:18:16;;;;;;;;;;;;;;;17.43;53.59;99198.78;10583755;28;20031;-71
2022/09/16 16:23:19;;;;;;;;;;;;;;;17.51;53.59;99194.00;10582873;28;19937;-70
2022/09/16 16:28:24;;;;;;;;;;;;;;;17.36;54.24;99194.81;10583102;28;19959;-69
2022/09/16 16:33:27;;;;;;;;;;;;;;;17.31;54.27;99202.09;10546562;28;19928;-72
2022/09/16 16:38:30;;;;;;;;;;;;;;;17.24;54.61;99203.38;10500812;28;19929;-77
2022/09/16 16:43:34;;;;;;;;;;;;;;;17.29;54.75;99201.38;10526460;28;20015;-75
2022/09/16 16:48:38;;;;;;;;;;;;;;;17.05;55.54;99208.78;10497653;28;20555;-78
2022/09/16 16:53:41;;;;;;;;;;;;;;;16.98;55.65;99217.91;10499286;28;19929;-75
2022/09/16 16:58:45;;;;;;;;;;;;;;;16.92;56.02;99206.91;10521329;28;19969;-75
2022/09/16 17:03:49;;;;;;;;;;;;;;;16.93;56.46;99219.94;10503189;28;20577;-77
2022/09/16 17:08:52;;;;;;;;;;;;;;;16.78;56.85;99219.91;10486319;28;19924;-76
2022/09/16 17:13:59;;;;;;;;;;;;;;;16.83;56.88;99218.75;10580970;28;19923;-71
2022/09/16 17:19:02;;;;;;;;;;;;;;;16.69;57.52;99220.41;10580567;28;19928;-71
2022/09/16 17:24:05;;;;;;;;;;;;;;;16.60;58.47;99223.53;10563672;28;20332;-72
2022/09/16 17:29:10;;;;;;;;;;;;;;;16.50;58.89;99223.16;10540429;28;20032;-72
2022/09/16 17:34:17;;;;;;;;;;;;;;;16.46;59.73;99220.75;10543219;28;19975;-70
2022/09/16 17:39:21;;;;;;;;;;;;;;;16.30;60.88;99223.31;10543163;28;19924;-68
2022/09/16 17:44:25;;;;;;;;;;;;;;;16.25;61.68;99232.31;10543552;28;19931;-71
2022/09/16 17:49:29;;;;;;;;;;;;;;;16.31;62.16;99230.22;10543632;28;20268;-70
2022/09/16 17:54:32;;;;;;;;;;;;;;;16.22;63.62;99229.88;10544108;28;20048;-68
2022/09/16 17:59:36;;;;;;;;;;;;;;;16.09;63.91;99227.88;10543400;28;20019;-68
2022/09/16 18:04:40;;;;;;;;;;;;;;;16.06;64.27;99220.19;10543221;28;19938;-73
2022/09/16 18:09:43;;;;;;;;;;;;;;;16.02;64.86;99225.63;10536425;28;20408;-72
2022/09/16 18:14:48;;;;;;;;;;;;;;;15.85;65.47;99230.84;10523715;28;20372;-74
2022/09/16 18:19:51;;;;;;;;;;;;;;;15.83;65.59;99232.69;10170819;28;10000510;-73
2022/09/16 18:24:54;;;;;;;;;;;;;;;15.73;66.18;99234.94;10537277;28;19938;-74
2022/09/16 18:29:58;;;;;;;;;;;;;;;15.54;67.08;99233.25;10527251;28;19990;-74
2022/09/16 18:35:01;;;;;;;;;;;;;;;15.60;67.19;99228.56;10535999;28;20387;-72
2022/09/16 18:40:04;;;;;;;;;;;;;;;15.50;67.53;99236.94;10536966;28;19964;-71
2022/09/16 18:45:09;;;;;;;;;;;;;;;15.45;67.98;99238.94;10536178;28;20064;-74
2022/09/16 18:50:13;;;;;;;;;;;;;;;15.34;68.63;99236.78;10537066;28;20394;-73
2022/09/16 18:55:17;;;;;;;;;;;;;;;15.34;68.51;99233.34;10545008;28;19924;-73
2022/09/16 19:00:21;;;;;;;;;;;;;;;15.35;68.56;99242.88;10545692;28;19928;-73
2022/09/16 19:05:24;;;;;;;;;;;;;;;15.24;69.27;99235.53;10546455;28;20015;-74
2022/09/16 19:10:27;;;;;;;;;;;;;;;15.33;69.31;99232.50;10545074;28;19923;-75
2022/09/16 19:15:33;;;;;;;;;;;;;;;15.44;69.05;99238.09;10543839;28;19928;-76
2022/09/16 19:20:41;;;;;;;;;;;;;;;15.39;69.42;99241.81;10566921;28;19931;-67
2022/09/16 19:25:44;;;;;;;;;;;;;;;15.28;69.85;99244.94;10585389;28;19941;-69
2022/09/16 19:30:49;;;;;;;;;;;;;;;15.17;70.73;99254.19;10585020;28;20256;-70
2022/09/16 19:35:52;;;;;;;;;;;;;;;15.00;71.45;99242.75;10585220;28;19928;-73
2022/09/16 19:41:02;;;;;;;;;;;;;;;14.89;72.14;99244.16;10585421;28;19980;-69
2022/09/16 19:46:07;;;;;;;;;;;;;;;14.75;75.20;99243.94;10584564;28;20018;-72
2022/09/16 19:51:12;;;;;;;;;;;;;;;14.81;74.52;99243.66;10584840;28;19938;-69
2022/09/16 19:56:16;;;;;;;;;;;;;;;14.85;73.59;99245.22;10585104;28;19923;-71
2022/09/16 20:01:21;;;;;;;;;;;;;;;14.79;73.33;99248.94;10584107;28;19928;-69
2022/09/16 20:06:26;;;;;;;;;;;;;;;14.71;73.53;99239.75;10583824;28;20265;-75
2022/09/16 20:11:30;;;;;;;;;;;;;;;14.70;73.99;99245.91;10539799;28;19966;-75
2022/09/16 20:16:35;;;;;;;;;;;;;;;14.60;74.13;99250.66;10541287;28;19977;-75
2022/09/16 20:21:39;;;;;;;;;;;;;;;14.63;73.99;99250.53;10534852;28;20439;-76
2022/09/16 20:26:42;;;;;;;;;;;;;;;14.61;74.40;99251.53;10537265;28;19924;-77
2022/09/16 20:31:47;;;;;;;;;;;;;;;14.38;75.82;99256.91;10537245;28;20315;-79
2022/09/16 20:36:51;;;;;;;;;;;;;;;14.35;76.60;99260.50;10541145;28;19935;-77
2022/09/16 20:41:55;;;;;;;;;;;;;;;14.52;75.78;99267.59;10538020;28;20031;-78
2022/09/16 20:47:00;;;;;;;;;;;;;;;14.42;76.45;99277.59;10537395;28;19928;-76
2022/09/16 20:52:03;;;;;;;;;;;;;;;14.52;76.46;99278.91;10537727;28;19924;-76
2022/09/16 20:57:07;;;;;;;;;;;;;;;14.47;76.99;99272.16;10525849;28;20031;-80
2022/09/16 21:02:11;;;;;;;;;;;;;;;14.44;77.38;99278.38;10524849;28;19940;-77
2022/09/16 21:07:15;;;;;;;;;;;;;;;14.25;77.85;99279.19;10524099;28;20427;-76
2022/09/16 21:12:18;;;;;;;;;;;;;;;14.22;78.04;99279.31;10518678;28;20038;-77
2022/09/16 21:17:22;;;;;;;;;;;;;;;14.23;77.76;99279.25;10537497;28;19932;-76
2022/09/16 21:22:25;;;;;;;;;;;;;;;14.14;78.17;99281.38;10540241;28;20003;-77
2022/09/16 21:27:30;;;;;;;;;;;;;;;14.09;78.80;99275.50;10537869;28;19928;-77
2022/09/16 21:32:34;;;;;;;;;;;;;;;14.08;79.46;99276.44;10536087;28;19923;-79
2022/09/16 21:37:37;;;;;;;;;;;;;;;13.98;79.50;99273.34;10537910;28;19924;-79
2022/09/16 21:42:41;;;;;;;;;;;;;;;14.13;80.03;99280.56;10538249;28;19976;-80
2022/09/16 21:47:46;;;;;;;;;;;;;;;14.05;79.79;99284.41;10539162;28;19973;-78
2022/09/16 21:52:49;;;;;;;;;;;;;;;13.91;80.58;99290.16;10539027;28;20347;-80
2022/09/16 21:57:52;;;;;;;;;;;;;;;13.72;81.90;99282.22;10538739;28;19924;-79
2022/09/16 22:02:56;;;;;;;;;;;;;;;13.81;81.73;99294.06;10537711;28;20011;-78
2022/09/16 22:08:00;;;;;;;;;;;;;;;13.64;82.75;99289.53;10537293;28;19935;-80
2022/09/16 22:13:03;;;;;;;;;;;;;;;13.67;82.15;99278.97;10537323;28;20440;-76
2022/09/16 22:18:08;;;;;;;;;;;;;;;13.67;83.07;99292.00;10538819;28;20024;-77
2022/09/16 22:23:11;;;;;;;;;;;;;;;13.58;83.18;99279.31;10580144;28;20010;-75
2022/09/16 22:28:14;;;;;;;;;;;;;;;13.48;83.75;99280.59;10579037;28;20030;-75
2022/09/16 22:33:18;;;;;;;;;;;;;;;13.39;84.20;99280.13;10578856;28;19928;-76
2022/09/16 22:38:21;;;;;;;;;;;;;;;13.29;85.11;99277.00;10578997;28;20386;-80
2022/09/16 22:43:24;;;;;;;;;;;;;;;13.30;85.05;99280.47;10577781;28;19923;-76
2022/09/16 22:48:28;;;;;;;;;;;;;;;13.30;84.78;99276.13;10578504;28;20268;-78
2022/09/16 22:53:32;;;;;;;;;;;;;;;13.19;86.01;99272.19;10578469;28;19934;-77
2022/09/16 22:58:35;;;;;;;;;;;;;;;13.18;85.95;99276.56;10561215;28;20247;-78
2022/09/16 23:03:40;;;;;;;;;;;;;;;13.24;86.48;99276.31;10578861;28;19959;-76
2022/09/16 23:08:45;;;;;;;;;;;;;;;13.18;86.44;99270.50;10580632;28;19952;-75
2022/09/16 23:13:51;;;;;;;;;;;;;;;13.11;87.05;99259.47;10583790;28;19924;-75
2022/09/16 23:18:56;;;;;;;;;;;;;;;13.19;86.83;99261.78;10583581;28;19973;-69
2022/09/16 23:24:00;;;;;;;;;;;;;;;13.20;86.60;99263.50;10584167;28;20333;-81
2022/09/16 23:29:05;;;;;;;;;;;;;;;13.09;87.38;99255.22;10584026;28;19924;-66
2022/09/16 23:34:11;;;;;;;;;;;;;;;13.04;88.04;99247.59;10583600;28;20302;-70
2022/09/16 23:39:14;;;;;;;;;;;;;;;13.12;87.75;99247.28;10587501;28;19946;-72
2022/09/16 23:44:18;;;;;;;;;;;;;;;13.12;87.91;99250.75;10591042;28;20348;-74
2022/09/16 23:49:22;;;;;;;;;;;;;;;13.06;88.17;99256.19;10590908;28;20420;-72
2022/09/16 23:54:25;;;;;;;;;;;;;;;13.13;88.68;99257.63;10590540;28;20022;-74
2022/09/16 23:59:28;;;;;;;;;;;;;;;13.15;87.84;99261.03;10590966;28;19923;-72
